sensor_id;sensor_type;location;lat;lon;timestamp;pressure;altitude;pressure_sealevel;temperature;humidity
3206;BME280;1615;53.602;11.418;2023-03-22T00:00:50;100622.59;;;12.13;100.00
3206;BME280;1615;53.602;11.418;2023-03-22T00:03:16;100620.63;;;12.14;100.00
3206;BME280;1615;53.602;11.418;2023-03-22T00:05:41;100610.28;;;12.11;100.00
3206;BME280;1615;53.602;11.418;2023-03-22T00:08:07;100613.53;;;12.13;100.00
3206;BME280;1615;53.602;11.418;2023-03-22T00:10:35;100589.22;;;11.93;100.00
3206;BME280;1615;53.602;11.418;2023-03-22T00:13:01;100621.88;;;12.08;100.00
3206;BME280;1615;53.602;11.418;2023-03-22T00:15:27;100626.03;;;12.05;100.00
3206;BME280;1615;53.602;11.418;2023-03-22T00:17:54;100609.25;;;12.07;100.00
3206;BME280;1615;53.602;11.418;2023-03-22T00:20:20;100604.34;;;12.04;100.00
3206;BME280;1615;53.602;11.418;2023-03-22T00:22:48;100560.81;;;11.70;100.00
3206;BME280;1615;53.602;11.418;2023-03-22T00:25:13;100595.81;;;11.92;100.00
3206;BME280;1615;53.602;11.418;2023-03-22T00:27:39;100603.78;;;11.93;100.00
3206;BME280;1615;53.602;11.418;2023-03-22T00:30:05;100596.44;;;11.89;100.00
3206;BME280;1615;53.602;11.418;2023-03-22T00:32:36;100593.81;;;11.84;100.00
3206;BME280;1615;53.602;11.418;2023-03-22T00:35:05;100597.75;;;11.78;100.00
3206;BME280;1615;53.602;11.418;2023-03-22T00:37:32;100538.63;;;11.40;100.00
3206;BME280;1615;53.602;11.418;2023-03-22T00:39:59;100596.31;;;11.67;100.00
3206;BME280;1615;53.602;11.418;2023-03-22T00:42:24;100593.69;;;11.62;100.00
3206;BME280;1615;53.602;11.418;2023-03-22T00:44:49;100581.59;;;11.63;100.00
3206;BME280;1615;53.602;11.418;2023-03-22T00:47:15;100578.94;;;11.58;100.00
3206;BME280;1615;53.602;11.418;2023-03-22T00:49:40;100573.19;;;11.54;100.00
3206;BME280;1615;53.602;11.418;2023-03-22T00:52:05;100565.88;;;11.50;100.00
3206;BME280;1615;53.602;11.418;2023-03-22T00:54:31;100412.53;;;10.49;100.00
3206;BME280;1615;53.602;11.418;2023-03-22T00:56:56;100565.97;;;11.45;100.00
3206;BME280;1615;53.602;11.418;2023-03-22T00:59:21;100571.06;;;11.38;100.00
3206;BME280;1615;53.602;11.418;2023-03-22T01:01:47;100582.56;;;11.40;100.00
3206;BME280;1615;53.602;11.418;2023-03-22T01:04:12;100577.69;;;11.37;100.00
3206;BME280;1615;53.602;11.418;2023-03-22T01:06:43;100573.91;;;11.33;100.00
3206;BME280;1615;53.602;11.418;2023-03-22T01:09:09;100520.69;;;11.02;100.00
3206;BME280;1615;53.602;11.418;2023-03-22T01:11:40;100570.97;;;11.29;100.00
3206;BME280;1615;53.602;11.418;2023-03-22T01:14:05;100564.66;;;11.29;100.00
3206;BME280;1615;53.602;11.418;2023-03-22T01:16:34;100516.22;;;10.92;100.00
3206;BME280;1615;53.602;11.418;2023-03-22T01:18:59;100535.16;;;11.07;100.00
3206;BME280;1615;53.602;11.418;2023-03-22T01:21:25;100558.25;;;11.20;100.00
3206;BME280;1615;53.602;11.418;2023-03-22T01:23:50;100520.28;;;10.95;100.00
3206;BME280;1615;53.602;11.418;2023-03-22T01:26:15;100559.44;;;11.14;100.00
3206;BME280;1615;53.602;11.418;2023-03-22T01:28:41;100552.63;;;11.11;100.00
3206;BME280;1615;53.602;11.418;2023-03-22T01:31:06;100500.78;;;10.83;100.00
3206;BME280;1615;53.602;11.418;2023-03-22T01:33:31;100550.50;;;11.08;100.00
3206;BME280;1615;53.602;11.418;2023-03-22T01:35:56;100551.41;;;11.04;100.00
3206;BME280;1615;53.602;11.418;2023-03-22T01:38:22;100550.78;;;11.07;100.00
3206;BME280;1615;53.602;11.418;2023-03-22T01:40:47;100548.34;;;11.05;100.00
3206;BME280;1615;53.602;11.418;2023-03-22T01:43:14;100530.06;;;11.01;100.00
3206;BME280;1615;53.602;11.418;2023-03-22T01:45:49;100526.81;;;10.99;100.00
3206;BME280;1615;53.602;11.418;2023-03-22T01:48:30;100523.25;;;10.98;100.00
3206;BME280;1615;53.602;11.418;2023-03-22T01:51:06;100523.53;;;10.97;100.00
3206;BME280;1615;53.602;11.418;2023-03-22T01:53:50;100519.75;;;10.93;100.00
3206;BME280;1615;53.602;11.418;2023-03-22T01:56:22;100520.88;;;10.92;100.00
3206;BME280;1615;53.602;11.418;2023-03-22T01:58:48;100505.84;;;10.89;100.00
3206;BME280;1615;53.602;11.418;2023-03-22T02:01:15;100493.03;;;10.85;100.00
3206;BME280;1615;53.602;11.418;2023-03-22T02:06:19;100502.72;;;10.96;100.00
3206;BME280;1615;53.602;11.418;2023-03-22T02:08:45;100493.28;;;11.02;100.00
3206;BME280;1615;53.602;11.418;2023-03-22T02:11:15;100505.88;;;11.03;100.00
3206;BME280;1615;53.602;11.418;2023-03-22T02:39:16;100469.41;;;11.29;100.00
3206;BME280;1615;53.602;11.418;2023-03-22T02:44:41;100463.53;;;11.36;100.00
3206;BME280;1615;53.602;11.418;2023-03-22T02:52:38;100467.28;;;11.40;100.00
3206;BME280;1615;53.602;11.418;2023-03-22T02:55:11;100458.53;;;11.38;100.00
3206;BME280;1615;53.602;11.418;2023-03-22T02:57:49;100456.91;;;11.37;100.00
3206;BME280;1615;53.602;11.418;2023-03-22T03:00:18;100455.78;;;11.38;100.00
3206;BME280;1615;53.602;11.418;2023-03-22T03:02:56;100466.28;;;11.36;100.00
3206;BME280;1615;53.602;11.418;2023-03-22T03:05:25;100382.13;;;10.91;100.00
3206;BME280;1615;53.602;11.418;2023-03-22T03:07:56;100456.50;;;11.43;100.00
3206;BME280;1615;53.602;11.418;2023-03-22T03:10:25;100451.00;;;11.43;100.00
3206;BME280;1615;53.602;11.418;2023-03-22T03:12:51;100450.22;;;11.43;100.00
3206;BME280;1615;53.602;11.418;2023-03-22T03:15:19;100449.38;;;11.42;100.00
3206;BME280;1615;53.602;11.418;2023-03-22T03:20:41;100466.88;;;11.19;100.00
3206;BME280;1615;53.602;11.418;2023-03-22T03:23:38;100447.53;;;11.51;100.00
3206;BME280;1615;53.602;11.418;2023-03-22T03:26:45;100442.88;;;11.52;100.00
3206;BME280;1615;53.602;11.418;2023-03-22T03:29:30;100432.13;;;11.42;100.00
3206;BME280;1615;53.602;11.418;2023-03-22T03:34:45;100436.75;;;11.55;100.00
3206;BME280;1615;53.602;11.418;2023-03-22T03:37:17;100431.28;;;11.55;100.00
3206;BME280;1615;53.602;11.418;2023-03-22T03:39:50;100433.72;;;11.56;100.00
3206;BME280;1615;53.602;11.418;2023-03-22T03:42:17;100428.53;;;11.55;100.00
3206;BME280;1615;53.602;11.418;2023-03-22T03:44:43;100386.38;;;11.24;100.00
3206;BME280;1615;53.602;11.418;2023-03-22T03:47:09;100438.19;;;11.52;100.00
3206;BME280;1615;53.602;11.418;2023-03-22T03:49:35;100427.22;;;11.52;100.00
3206;BME280;1615;53.602;11.418;2023-03-22T03:52:03;100426.72;;;11.50;100.00
3206;BME280;1615;53.602;11.418;2023-03-22T03:54:29;100434.13;;;11.50;100.00
3206;BME280;1615;53.602;11.418;2023-03-22T03:56:54;100435.75;;;11.51;100.00
3206;BME280;1615;53.602;11.418;2023-03-22T03:59:20;100428.63;;;11.50;100.00
3206;BME280;1615;53.602;11.418;2023-03-22T04:01:45;100436.75;;;11.55;100.00
3206;BME280;1615;53.602;11.418;2023-03-22T04:04:25;100441.44;;;11.54;100.00
3206;BME280;1615;53.602;11.418;2023-03-22T04:06:55;100444.41;;;11.58;100.00
3206;BME280;1615;53.602;11.418;2023-03-22T04:09:25;100435.16;;;11.54;100.00
3206;BME280;1615;53.602;11.418;2023-03-22T04:11:52;100431.28;;;11.55;100.00
3206;BME280;1615;53.602;11.418;2023-03-22T04:14:17;100432.88;;;11.56;100.00
3206;BME280;1615;53.602;11.418;2023-03-22T04:16:42;100423.34;;;11.53;100.00
3206;BME280;1615;53.602;11.418;2023-03-22T04:19:08;100454.97;;;11.51;100.00
3206;BME280;1615;53.602;11.418;2023-03-22T04:21:33;100434.13;;;11.50;100.00
3206;BME280;1615;53.602;11.418;2023-03-22T04:23:58;100421.53;;;11.49;100.00
3206;BME280;1615;53.602;11.418;2023-03-22T04:26:23;100322.13;;;10.76;100.00
3206;BME280;1615;53.602;11.418;2023-03-22T04:28:49;100416.63;;;11.46;100.00
3206;BME280;1615;53.602;11.418;2023-03-22T04:31:14;100384.28;;;11.21;100.00
3206;BME280;1615;53.602;11.418;2023-03-22T04:33:39;100416.25;;;11.39;100.00
3206;BME280;1615;53.602;11.418;2023-03-22T04:36:08;100413.41;;;11.44;100.00
3206;BME280;1615;53.602;11.418;2023-03-22T04:38:40;100410.53;;;11.49;100.00
3206;BME280;1615;53.602;11.418;2023-03-22T04:41:05;100408.50;;;11.41;100.00
3206;BME280;1615;53.602;11.418;2023-03-22T04:43:31;100415.66;;;11.42;100.00
3206;BME280;1615;53.602;11.418;2023-03-22T04:45:59;100398.16;;;11.38;100.00
3206;BME280;1615;53.602;11.418;2023-03-22T04:48:26;100405.38;;;11.34;100.00
3206;BME280;1615;53.602;11.418;2023-03-22T04:50:52;100392.97;;;11.36;100.00
3206;BME280;1615;53.602;11.418;2023-03-22T04:53:18;100417.38;;;11.38;100.00
3206;BME280;1615;53.602;11.418;2023-03-22T04:55:43;100388.19;;;11.42;100.00
3206;BME280;1615;53.602;11.418;2023-03-22T04:58:09;100386.69;;;11.36;100.00
3206;BME280;1615;53.602;11.418;2023-03-22T05:00:35;100384.44;;;11.38;100.00
3206;BME280;1615;53.602;11.418;2023-03-22T05:03:01;100383.31;;;11.39;100.00
3206;BME280;1615;53.602;11.418;2023-03-22T05:05:28;100387.19;;;11.38;100.00
3206;BME280;1615;53.602;11.418;2023-03-22T05:07:53;100379.44;;;11.40;100.00
3206;BME280;1615;53.602;11.418;2023-03-22T05:10:20;100387.19;;;11.38;100.00
3206;BME280;1615;53.602;11.418;2023-03-22T05:12:45;100383.31;;;11.39;100.00
3206;BME280;1615;53.602;11.418;2023-03-22T05:15:11;100383.31;;;11.39;100.00
3206;BME280;1615;53.602;11.418;2023-03-22T05:17:36;100377.81;;;11.39;100.00
3206;BME280;1615;53.602;11.418;2023-03-22T05:20:01;100315.63;;;10.99;100.00
3206;BME280;1615;53.602;11.418;2023-03-22T05:22:33;100383.94;;;11.36;100.00
3206;BME280;1615;53.602;11.418;2023-03-22T05:25:02;100384.53;;;11.46;100.00
3206;BME280;1615;53.602;11.418;2023-03-22T05:27:27;100379.41;;;11.53;100.00
3206;BME280;1615;53.602;11.418;2023-03-22T05:29:55;100379.31;;;11.58;100.00
3206;BME280;1615;53.602;11.418;2023-03-22T05:32:20;100375.16;;;11.61;100.00
3206;BME280;1615;53.602;11.418;2023-03-22T05:34:49;100370.69;;;11.65;100.00
3206;BME280;1615;53.602;11.418;2023-03-22T05:37:15;100372.78;;;11.54;100.00
3206;BME280;1615;53.602;11.418;2023-03-22T05:39:41;100381.66;;;11.51;100.00
3206;BME280;1615;53.602;11.418;2023-03-22T05:42:06;100377.59;;;11.62;100.00
3206;BME280;1615;53.602;11.418;2023-03-22T05:44:31;100375.56;;;11.68;100.00
3206;BME280;1615;53.602;11.418;2023-03-22T05:46:56;100365.50;;;11.63;100.00
3206;BME280;1615;53.602;11.418;2023-03-22T05:49:22;100371.69;;;11.55;100.00
3206;BME280;1615;53.602;11.418;2023-03-22T05:51:47;100378.81;;;11.56;100.00
3206;BME280;1615;53.602;11.418;2023-03-22T05:54:12;100375.25;;;11.56;100.00
3206;BME280;1615;53.602;11.418;2023-03-22T05:56:38;100369.44;;;11.71;100.00
3206;BME280;1615;53.602;11.418;2023-03-22T05:59:03;100362.69;;;11.77;100.00
3206;BME280;1615;53.602;11.418;2023-03-22T06:01:29;100367.59;;;11.80;100.00
3206;BME280;1615;53.602;11.418;2023-03-22T06:03:54;100372.44;;;11.83;100.00
3206;BME280;1615;53.602;11.418;2023-03-22T06:06:20;100369.56;;;11.88;100.00
3206;BME280;1615;53.602;11.418;2023-03-22T06:08:46;100378.31;;;11.90;100.00
3206;BME280;1615;53.602;11.418;2023-03-22T06:11:11;100359.94;;;11.77;100.00
3206;BME280;1615;53.602;11.418;2023-03-22T06:13:37;100340.47;;;11.65;100.00
3206;BME280;1615;53.602;11.418;2023-03-22T06:16:02;100334.19;;;11.51;100.00
3206;BME280;1615;53.602;11.418;2023-03-22T06:18:29;100379.81;;;11.74;100.00
3206;BME280;1615;53.602;11.418;2023-03-22T06:20:55;100379.53;;;11.62;100.00
3206;BME280;1615;53.602;11.418;2023-03-22T06:23:20;100379.59;;;11.57;100.00
3206;BME280;1615;53.602;11.418;2023-03-22T06:25:46;100379.22;;;11.63;100.00
3206;BME280;1615;53.602;11.418;2023-03-22T06:28:11;100385.69;;;11.81;100.00
3206;BME280;1615;53.602;11.418;2023-03-22T06:30:37;100370.22;;;11.85;100.00
3206;BME280;1615;53.602;11.418;2023-03-22T06:33:02;100388.69;;;11.93;100.00
3206;BME280;1615;53.602;11.418;2023-03-22T06:35:30;100360.53;;;11.87;100.00
3206;BME280;1615;53.602;11.418;2023-03-22T06:37:55;100375.41;;;12.08;100.00
3206;BME280;1615;53.602;11.418;2023-03-22T06:40:21;100373.00;;;12.15;100.00
3206;BME280;1615;53.602;11.418;2023-03-22T06:42:46;100375.31;;;12.22;100.00
3206;BME280;1615;53.602;11.418;2023-03-22T06:45:11;100387.69;;;12.33;100.00
3206;BME280;1615;53.602;11.418;2023-03-22T06:47:40;100375.34;;;12.52;100.00
3206;BME280;1615;53.602;11.418;2023-03-22T06:50:06;100365.88;;;12.67;100.00
3206;BME280;1615;53.602;11.418;2023-03-22T06:52:32;100369.97;;;12.78;100.00
3206;BME280;1615;53.602;11.418;2023-03-22T06:54:58;100365.16;;;12.92;100.00
3206;BME280;1615;53.602;11.418;2023-03-22T06:57:23;100346.84;;;12.87;100.00
3206;BME280;1615;53.602;11.418;2023-03-22T06:59:48;100361.50;;;13.05;100.00
3206;BME280;1615;53.602;11.418;2023-03-22T07:02:14;100355.53;;;13.03;100.00
3206;BME280;1615;53.602;11.418;2023-03-22T07:04:39;100357.31;;;13.16;100.00
3206;BME280;1615;53.602;11.418;2023-03-22T07:07:04;100355.91;;;13.27;100.00
3206;BME280;1615;53.602;11.418;2023-03-22T07:09:30;100352.84;;;13.37;100.00
3206;BME280;1615;53.602;11.418;2023-03-22T07:11:55;100354.66;;;13.50;100.00
3206;BME280;1615;53.602;11.418;2023-03-22T07:14:20;100364.22;;;13.44;100.00
3206;BME280;1615;53.602;11.418;2023-03-22T07:16:46;100357.72;;;13.74;100.00
3206;BME280;1615;53.602;11.418;2023-03-22T07:19:11;100362.28;;;13.87;100.00
3206;BME280;1615;53.602;11.418;2023-03-22T07:21:36;100275.75;;;13.54;100.00
3206;BME280;1615;53.602;11.418;2023-03-22T07:24:02;100357.72;;;14.08;100.00
3206;BME280;1615;53.602;11.418;2023-03-22T07:26:28;100356.25;;;14.10;100.00
3206;BME280;1615;53.602;11.418;2023-03-22T07:28:55;100346.19;;;14.14;100.00
3206;BME280;1615;53.602;11.418;2023-03-22T07:31:20;100349.78;;;14.06;100.00
3206;BME280;1615;53.602;11.418;2023-03-22T07:33:46;100341.19;;;14.08;100.00
3206;BME280;1615;53.602;11.418;2023-03-22T07:36:12;100326.41;;;14.12;100.00
3206;BME280;1615;53.602;11.418;2023-03-22T07:38:38;100349.25;;;14.38;100.00
3206;BME280;1615;53.602;11.418;2023-03-22T07:41:03;100343.88;;;14.50;100.00
3206;BME280;1615;53.602;11.418;2023-03-22T07:43:29;100354.06;;;14.50;100.00
3206;BME280;1615;53.602;11.418;2023-03-22T07:45:55;100351.84;;;14.43;100.00
3206;BME280;1615;53.602;11.418;2023-03-22T07:48:21;100358.31;;;14.39;100.00
3206;BME280;1615;53.602;11.418;2023-03-22T07:50:47;100421.94;;;14.34;100.00
3206;BME280;1615;53.602;11.418;2023-03-22T07:53:12;100351.53;;;14.28;100.00
3206;BME280;1615;53.602;11.418;2023-03-22T07:55:38;100345.56;;;14.26;100.00
3206;BME280;1615;53.602;11.418;2023-03-22T07:58:04;100284.28;;;13.95;100.00
3206;BME280;1615;53.602;11.418;2023-03-22T08:00:30;100337.59;;;14.24;100.00
3206;BME280;1615;53.602;11.418;2023-03-22T08:02:55;100347.00;;;14.32;100.00
3206;BME280;1615;53.602;11.418;2023-03-22T08:05:21;100343.28;;;14.28;100.00
3206;BME280;1615;53.602;11.418;2023-03-22T08:07:49;100308.75;;;14.22;100.00
3206;BME280;1615;53.602;11.418;2023-03-22T08:10:15;100328.78;;;14.48;100.00
3206;BME280;1615;53.602;11.418;2023-03-22T08:12:41;100235.88;;;13.77;100.00
3206;BME280;1615;53.602;11.418;2023-03-22T08:15:07;100327.81;;;14.44;100.00
3206;BME280;1615;53.602;11.418;2023-03-22T08:17:32;100243.94;;;13.99;100.00
3206;BME280;1615;53.602;11.418;2023-03-22T08:19:58;100299.31;;;14.23;100.00
3206;BME280;1615;53.602;11.418;2023-03-22T08:22:26;100326.69;;;14.36;100.00
3206;BME280;1615;53.602;11.418;2023-03-22T08:24:54;100321.50;;;14.43;100.00
3206;BME280;1615;53.602;11.418;2023-03-22T08:27:20;100316.78;;;14.44;100.00
3206;BME280;1615;53.602;11.418;2023-03-22T08:29:46;100298.97;;;14.33;100.00
3206;BME280;1615;53.602;11.418;2023-03-22T08:32:13;100317.59;;;14.44;100.00
3206;BME280;1615;53.602;11.418;2023-03-22T08:34:42;100309.81;;;14.46;100.00
3206;BME280;1615;53.602;11.418;2023-03-22T08:37:09;100305.44;;;14.45;100.00
3206;BME280;1615;53.602;11.418;2023-03-22T08:39:35;100303.97;;;14.48;100.00
3206;BME280;1615;53.602;11.418;2023-03-22T08:42:02;100305.53;;;14.57;100.00
3206;BME280;1615;53.602;11.418;2023-03-22T08:44:27;100302.91;;;14.61;100.00
3206;BME280;1615;53.602;11.418;2023-03-22T08:46:53;100301.91;;;14.74;100.00
3206;BME280;1615;53.602;11.418;2023-03-22T08:49:19;100297.34;;;14.78;100.00
3206;BME280;1615;53.602;11.418;2023-03-22T08:51:44;100291.66;;;14.83;100.00
3206;BME280;1615;53.602;11.418;2023-03-22T08:54:10;100284.19;;;14.75;100.00
3206;BME280;1615;53.602;11.418;2023-03-22T08:56:35;100267.84;;;14.70;100.00
3206;BME280;1615;53.602;11.418;2023-03-22T08:59:03;100291.91;;;14.90;100.00
3206;BME280;1615;53.602;11.418;2023-03-22T09:01:28;100267.09;;;14.90;100.00
3206;BME280;1615;53.602;11.418;2023-03-22T09:03:55;100276.72;;;15.04;100.00
3206;BME280;1615;53.602;11.418;2023-03-22T09:06:20;100276.41;;;15.06;100.00
3206;BME280;1615;53.602;11.418;2023-03-22T09:08:45;100162.06;;;14.37;100.00
3206;BME280;1615;53.602;11.418;2023-03-22T09:11:13;100270.13;;;14.97;100.00
3206;BME280;1615;53.602;11.418;2023-03-22T09:13:39;100262.97;;;14.96;100.00
3206;BME280;1615;53.602;11.418;2023-03-22T09:16:05;100155.59;;;14.33;100.00
3206;BME280;1615;53.602;11.418;2023-03-22T09:18:32;100251.28;;;14.99;100.00
3206;BME280;1615;53.602;11.418;2023-03-22T09:20:58;100241.28;;;15.06;100.00
3206;BME280;1615;53.602;11.418;2023-03-22T09:23:23;100245.50;;;15.12;100.00
3206;BME280;1615;53.602;11.418;2023-03-22T09:25:48;100211.00;;;14.98;100.00
3206;BME280;1615;53.602;11.418;2023-03-22T09:28:14;100235.94;;;15.30;100.00
3206;BME280;1615;53.602;11.418;2023-03-22T09:30:41;100086.72;;;14.45;100.00
3206;BME280;1615;53.602;11.418;2023-03-22T09:33:06;100227.97;;;15.29;100.00
3206;BME280;1615;53.602;11.418;2023-03-22T09:35:32;100224.84;;;15.39;100.00
3206;BME280;1615;53.602;11.418;2023-03-22T09:37:57;100221.66;;;15.49;100.00
3206;BME280;1615;53.602;11.418;2023-03-22T09:40:26;100214.31;;;15.53;100.00
3206;BME280;1615;53.602;11.418;2023-03-22T09:42:54;100175.72;;;15.44;100.00
3206;BME280;1615;53.602;11.418;2023-03-22T09:45:26;100209.81;;;15.81;100.00
3206;BME280;1615;53.602;11.418;2023-03-22T09:47:59;100218.22;;;15.84;100.00
3206;BME280;1615;53.602;11.418;2023-03-22T09:50:30;100210.38;;;15.86;100.00
3206;BME280;1615;53.602;11.418;2023-03-22T09:52:57;100212.13;;;15.91;100.00
3206;BME280;1615;53.602;11.418;2023-03-22T09:55:40;100203.31;;;16.09;100.00
3206;BME280;1615;53.602;11.418;2023-03-22T10:01:03;100191.09;;;16.22;100.00
3206;BME280;1615;53.602;11.418;2023-03-22T10:03:52;100191.22;;;16.14;100.00
3206;BME280;1615;53.602;11.418;2023-03-22T10:06:23;100109.81;;;15.67;100.00
3206;BME280;1615;53.602;11.418;2023-03-22T10:08:59;100191.31;;;16.17;100.00
3206;BME280;1615;53.602;11.418;2023-03-22T10:11:49;100191.81;;;16.31;100.00
3206;BME280;1615;53.602;11.418;2023-03-22T10:14:35;100191.38;;;16.53;100.00
3206;BME280;1615;53.602;11.418;2023-03-22T10:17:08;100195.63;;;16.63;100.00
3206;BME280;1615;53.602;11.418;2023-03-22T10:20:00;100161.72;;;16.42;100.00
3206;BME280;1615;53.602;11.418;2023-03-22T10:22:32;100187.53;;;16.58;100.00
3206;BME280;1615;53.602;11.418;2023-03-22T10:24:59;100194.38;;;16.72;100.00
3206;BME280;1615;53.602;11.418;2023-03-22T10:27:28;100182.47;;;16.72;100.00
3206;BME280;1615;53.602;11.418;2023-03-22T10:30:08;100184.31;;;16.68;100.00
3206;BME280;1615;53.602;11.418;2023-03-22T10:32:55;100170.94;;;16.82;100.00
3206;BME280;1615;53.602;11.418;2023-03-22T10:35:21;100168.38;;;16.89;100.00
3206;BME280;1615;53.602;11.418;2023-03-22T10:37:48;100165.13;;;16.99;100.00
3206;BME280;1615;53.602;11.418;2023-03-22T10:40:40;100148.81;;;17.09;100.00
3206;BME280;1615;53.602;11.418;2023-03-22T10:43:20;100149.75;;;17.01;100.00
3206;BME280;1615;53.602;11.418;2023-03-22T10:45:46;100144.06;;;17.10;100.00
3206;BME280;1615;53.602;11.418;2023-03-22T10:48:30;100147.56;;;16.95;100.00
3206;BME280;1615;53.602;11.418;2023-03-22T10:50:57;100123.63;;;16.87;100.00
3206;BME280;1615;53.602;11.418;2023-03-22T10:53:33;100143.00;;;16.87;100.00
3206;BME280;1615;53.602;11.418;2023-03-22T10:56:02;100149.69;;;16.86;100.00
3206;BME280;1615;53.602;11.418;2023-03-22T10:58:29;100141.84;;;16.88;100.00
3206;BME280;1615;53.602;11.418;2023-03-22T11:00:58;100125.66;;;17.02;100.00
3206;BME280;1615;53.602;11.418;2023-03-22T11:03:28;100127.88;;;17.24;100.00
3206;BME280;1615;53.602;11.418;2023-03-22T11:11:31;100132.06;;;17.45;100.00
3206;BME280;1615;53.602;11.418;2023-03-22T11:16:27;100135.03;;;17.25;100.00
3206;BME280;1615;53.602;11.418;2023-03-22T11:18:53;100130.84;;;17.31;100.00
3206;BME280;1615;53.602;11.418;2023-03-22T11:21:23;100137.25;;;17.47;100.00
3206;BME280;1615;53.602;11.418;2023-03-22T11:23:55;100114.25;;;17.46;100.00
3206;BME280;1615;53.602;11.418;2023-03-22T11:27:01;100086.66;;;17.22;100.00
3206;BME280;1615;53.602;11.418;2023-03-22T11:29:27;100073.94;;;16.78;100.00
3206;BME280;1615;53.602;11.418;2023-03-22T11:31:58;100134.91;;;17.49;100.00
3206;BME280;1615;53.602;11.418;2023-03-22T11:34:28;100025.25;;;16.77;100.00
3206;BME280;1615;53.602;11.418;2023-03-22T11:36:54;100130.59;;;17.63;100.00
3206;BME280;1615;53.602;11.418;2023-03-22T11:39:26;100134.81;;;17.73;100.00
3206;BME280;1615;53.602;11.418;2023-03-22T11:42:00;100128.44;;;17.72;100.00
3206;BME280;1615;53.602;11.418;2023-03-22T11:44:31;100128.56;;;17.76;100.00
3206;BME280;1615;53.602;11.418;2023-03-22T11:47:00;100134.00;;;17.88;100.00
3206;BME280;1615;53.602;11.418;2023-03-22T11:49:33;100072.16;;;17.41;100.00
3206;BME280;1615;53.602;11.418;2023-03-22T11:52:09;100125.31;;;17.74;100.00
3206;BME280;1615;53.602;11.418;2023-03-22T11:54:37;100077.72;;;17.41;100.00
3206;BME280;1615;53.602;11.418;2023-03-22T11:57:05;100118.25;;;17.61;100.00
3206;BME280;1615;53.602;11.418;2023-03-22T12:00:07;100123.41;;;17.62;100.00
3206;BME280;1615;53.602;11.418;2023-03-22T12:02:47;100139.41;;;17.53;100.00
3206;BME280;1615;53.602;11.418;2023-03-22T12:05:23;100123.00;;;17.76;100.00
3206;BME280;1615;53.602;11.418;2023-03-22T12:11:07;100139.19;;;17.74;100.00
3206;BME280;1615;53.602;11.418;2023-03-22T12:13:48;100105.63;;;17.63;100.00
3206;BME280;1615;53.602;11.418;2023-03-22T12:16:22;100111.72;;;17.53;100.00
3206;BME280;1615;53.602;11.418;2023-03-22T12:19:09;100114.91;;;17.40;100.00
3206;BME280;1615;53.602;11.418;2023-03-22T12:21:38;100124.63;;;17.22;100.00
3206;BME280;1615;53.602;11.418;2023-03-22T12:24:13;100130.91;;;17.19;100.00
3206;BME280;1615;53.602;11.418;2023-03-22T12:26:42;100119.00;;;17.18;100.00
3206;BME280;1615;53.602;11.418;2023-03-22T12:29:16;100119.22;;;17.25;100.00
3206;BME280;1615;53.602;11.418;2023-03-22T12:32:00;100119.31;;;17.29;100.00
3206;BME280;1615;53.602;11.418;2023-03-22T12:34:48;100117.31;;;17.29;100.00
3206;BME280;1615;53.602;11.418;2023-03-22T12:37:20;100129.81;;;17.23;100.00
3206;BME280;1615;53.602;11.418;2023-03-22T12:39:50;100121.34;;;17.32;100.00
3206;BME280;1615;53.602;11.418;2023-03-22T12:42:21;100128.63;;;17.36;100.00
3206;BME280;1615;53.602;11.418;2023-03-22T12:44:48;100111.78;;;17.29;100.00
3206;BME280;1615;53.602;11.418;2023-03-22T12:47:31;100119.81;;;17.19;100.00
3206;BME280;1615;53.602;11.418;2023-03-22T12:50:11;100109.66;;;17.23;100.00
3206;BME280;1615;53.602;11.418;2023-03-22T12:52:44;100106.81;;;17.35;100.00
3206;BME280;1615;53.602;11.418;2023-03-22T12:55:31;100067.97;;;17.19;100.00
3206;BME280;1615;53.602;11.418;2023-03-22T12:57:58;100117.16;;;17.38;100.00
3206;BME280;1615;53.602;11.418;2023-03-22T13:00:27;100056.78;;;17.16;100.00
3206;BME280;1615;53.602;11.418;2023-03-22T13:05:40;100113.06;;;17.75;100.00
3206;BME280;1615;53.602;11.418;2023-03-22T13:08:05;100067.53;;;17.45;100.00
3206;BME280;1615;53.602;11.418;2023-03-22T13:18:38;100100.28;;;17.55;100.00
3206;BME280;1615;53.602;11.418;2023-03-22T13:21:22;100030.19;;;17.27;100.00
3206;BME280;1615;53.602;11.418;2023-03-22T13:24:21;100109.75;;;17.85;100.00
3206;BME280;1615;53.602;11.418;2023-03-22T13:26:49;100115.13;;;17.78;100.00
3206;BME280;1615;53.602;11.418;2023-03-22T13:29:24;100094.47;;;17.60;100.00
3206;BME280;1615;53.602;11.418;2023-03-22T13:34:17;100116.28;;;17.77;100.00
3206;BME280;1615;53.602;11.418;2023-03-22T13:36:49;100115.78;;;17.87;100.00
3206;BME280;1615;53.602;11.418;2023-03-22T13:39:15;100105.63;;;17.79;100.00
3206;BME280;1615;53.602;11.418;2023-03-22T13:41:45;100105.47;;;17.87;100.00
3206;BME280;1615;53.602;11.418;2023-03-22T13:44:30;100101.34;;;17.66;100.00
3206;BME280;1615;53.602;11.418;2023-03-22T13:46:59;100097.94;;;17.57;100.00
3206;BME280;1615;53.602;11.418;2023-03-22T13:49:42;100106.41;;;17.48;100.00
3206;BME280;1615;53.602;11.418;2023-03-22T13:52:22;100090.75;;;17.40;100.00
3206;BME280;1615;53.602;11.418;2023-03-22T13:54:49;100096.50;;;17.35;100.00
3206;BME280;1615;53.602;11.418;2023-03-22T13:57:43;100098.03;;;17.33;100.00
3206;BME280;1615;53.602;11.418;2023-03-22T14:02:56;100094.94;;;17.07;100.00
3206;BME280;1615;53.602;11.418;2023-03-22T14:05:24;100101.38;;;17.11;100.00
3206;BME280;1615;53.602;11.418;2023-03-22T14:07:54;100099.25;;;17.20;100.00
3206;BME280;1615;53.602;11.418;2023-03-22T14:10:43;100099.94;;;17.17;100.00
3206;BME280;1615;53.602;11.418;2023-03-22T14:13:16;100096.94;;;17.22;100.00